createdAt,value
2022-10-29T00:00:22.935Z,11.7
2022-10-29T00:01:27.651Z,12.1
2022-10-29T00:02:32.212Z,11.8
2022-10-29T00:03:36.663Z,10.4
2022-10-29T00:04:41.403Z,9.5
2022-10-29T00:05:45.907Z,10.7
2022-10-29T00:07:00.525Z,10.2
2022-10-29T00:08:04.583Z,11.7
2022-10-29T00:09:08.731Z,10.2
2022-10-29T00:10:13.244Z,13.5
2022-10-29T00:11:17.404Z,11.8
2022-10-29T00:12:22.046Z,11.7
2022-10-29T00:13:26.580Z,12.7
2022-10-29T00:14:30.791Z,10.9
2022-10-29T00:15:35.311Z,10.5
2022-10-29T00:16:42.463Z,9.9
2022-10-29T00:17:47.007Z,12.7
2022-10-29T00:18:51.518Z,10.9
2022-10-29T00:19:55.785Z,12.7
2022-10-29T00:21:00.279Z,10.9
2022-10-29T00:22:05.086Z,11.7
2022-10-29T00:23:09.768Z,12
2022-10-29T00:24:14.417Z,10.3
2022-10-29T00:25:20.587Z,12
2022-10-29T00:26:25.308Z,13.4
2022-10-29T00:27:30.241Z,11.1
2022-10-29T00:28:34.603Z,14.3
2022-10-29T00:29:39.108Z,11.2
2022-10-29T00:30:43.288Z,10.2
2022-10-29T00:31:47.767Z,10.6
2022-10-29T00:32:52.597Z,10.7
2022-10-29T00:33:56.964Z,10.9
2022-10-29T00:35:01.482Z,11.1
2022-10-29T00:36:06.091Z,11
2022-10-29T00:37:13.711Z,10.6
2022-10-29T00:38:18.326Z,11.3
2022-10-29T00:39:23.099Z,11.8
2022-10-29T00:40:27.682Z,10.4
2022-10-29T00:41:32.154Z,12.1
2022-10-29T00:42:36.595Z,11.6
2022-10-29T00:43:41.366Z,9.6
2022-10-29T00:44:51.844Z,10.3
2022-10-29T00:45:56.347Z,11.4
2022-10-29T00:47:03.559Z,11.7
2022-10-29T00:48:18.363Z,12.4
2022-10-29T00:49:22.759Z,10.6
2022-10-29T00:50:26.951Z,11.5
2022-10-29T00:51:31.524Z,10.9
2022-10-29T00:52:35.991Z,10.2
2022-10-29T00:53:40.576Z,11.4
2022-10-29T00:54:45.021Z,12.9
2022-10-29T00:55:49.504Z,10.9
2022-10-29T00:56:54.099Z,11.7
2022-10-29T00:57:59.013Z,12.1
2022-10-29T00:59:03.165Z,11
2022-10-29T01:00:07.916Z,11.1
2022-10-29T01:01:12.882Z,11.3
2022-10-29T01:02:17.729Z,11.6
2022-10-29T01:03:22.035Z,10.1
2022-10-29T01:04:26.351Z,9.2
2022-10-29T01:05:30.903Z,10.5
2022-10-29T01:06:35.203Z,10
2022-10-29T01:07:39.291Z,10.4
2022-10-29T01:08:44.188Z,9.8
2022-10-29T01:09:48.628Z,10.6
2022-10-29T01:10:53.272Z,11.3
2022-10-29T01:12:08.191Z,12
2022-10-29T01:13:19.540Z,10
2022-10-29T01:14:29.108Z,10.5
2022-10-29T01:15:38.576Z,10.6
2022-10-29T01:16:48.293Z,12
2022-10-29T01:18:00.964Z,10.3
2022-10-29T01:19:10.664Z,10
2022-10-29T01:20:20.347Z,10.3
2022-10-29T01:21:32.471Z,10.9
2022-10-29T01:22:44.879Z,12.6
2022-10-29T01:23:59.571Z,9.5
2022-10-29T01:25:09.157Z,11.2
2022-10-29T01:26:18.891Z,11
2022-10-29T01:27:26.232Z,11
2022-10-29T01:28:41.367Z,10.1
2022-10-29T01:29:54.013Z,10.8
2022-10-29T01:31:06.659Z,10.5
2022-10-29T01:32:16.363Z,10.4
2022-10-29T01:33:26.012Z,11.3
2022-10-29T01:34:39.100Z,11.4
2022-10-29T01:35:48.846Z,11
2022-10-29T01:37:01.071Z,10.2
2022-10-29T01:38:10.835Z,11.5
2022-10-29T01:39:25.723Z,12.2
2022-10-29T01:40:35.231Z,12.1
2022-10-29T01:41:44.735Z,14.7
2022-10-29T01:42:57.278Z,12.2
2022-10-29T01:44:06.833Z,14.8
2022-10-29T01:45:19.421Z,12
2022-10-29T01:46:29.392Z,13.6
2022-10-29T01:47:43.956Z,11.1
2022-10-29T01:48:53.516Z,12.3
2022-10-29T01:49:58.147Z,12.6
2022-10-29T01:51:02.836Z,13.1
2022-10-29T01:52:09.823Z,11.6
2022-10-29T01:53:14.369Z,12.4
2022-10-29T01:54:19.043Z,14.5
2022-10-29T01:55:23.623Z,12.3
2022-10-29T01:56:30.903Z,12.2
2022-10-29T01:57:35.627Z,16.7
2022-10-29T01:58:39.844Z,12.9
2022-10-29T01:59:55.410Z,12.9
2022-10-29T02:00:48.790Z,12.9
2022-10-29T02:02:03.522Z,11.7
2022-10-29T02:03:10.499Z,13.6
2022-10-29T02:04:25.414Z,13.2
2022-10-29T02:05:39.988Z,14.5
2022-10-29T02:06:54.795Z,12.6
2022-10-29T02:08:09.696Z,14.2
2022-10-29T02:09:19.334Z,13.7
2022-10-29T02:10:28.847Z,13.1
2022-10-29T02:11:32.867Z,13.7
2022-10-29T02:12:40.020Z,11.4
2022-10-29T02:13:47.275Z,12.3
2022-10-29T02:14:54.399Z,11.9
2022-10-29T02:15:58.898Z,10.3
2022-10-29T02:17:03.152Z,13.4
2022-10-29T02:18:07.670Z,12.7
2022-10-29T02:19:12.299Z,13.9
2022-10-29T02:20:16.816Z,12.7
2022-10-29T02:21:21.367Z,12.6
2022-10-29T02:22:25.900Z,12.9
2022-10-29T02:23:30.652Z,12.3
2022-10-29T02:24:35.047Z,12.1
2022-10-29T02:25:39.652Z,11.2
2022-10-29T02:26:43.927Z,10.6
2022-10-29T02:27:48.435Z,12.3
2022-10-29T02:28:53.155Z,11.8
2022-10-29T02:29:57.528Z,14.1
2022-10-29T02:31:02.172Z,10.4
2022-10-29T02:32:07.003Z,12.4
2022-10-29T02:33:12.141Z,13.5
2022-10-29T02:34:16.404Z,11.1
2022-10-29T02:35:21.024Z,11.7
2022-10-29T02:36:25.476Z,12.9
2022-10-29T02:37:30.038Z,12.8
2022-10-29T02:38:34.152Z,10.1
2022-10-29T02:39:38.807Z,11.9
2022-10-29T02:40:43.294Z,12.6
2022-10-29T02:41:47.608Z,13.8
2022-10-29T02:42:52.043Z,12.8
2022-10-29T02:43:56.579Z,12.9
2022-10-29T02:45:01.182Z,13.1
2022-10-29T02:46:05.847Z,14.1
2022-10-29T02:47:12.903Z,12.5
2022-10-29T02:48:17.559Z,14.2
2022-10-29T02:49:21.994Z,15.9
2022-10-29T02:50:26.598Z,12.1
2022-10-29T02:51:31.239Z,13
2022-10-29T02:52:37.603Z,15.5
2022-10-29T02:53:42.007Z,14.2
2022-10-29T02:54:46.115Z,13.6
2022-10-29T02:55:50.590Z,13.4
2022-10-29T02:56:55.163Z,15.9
2022-10-29T02:57:59.907Z,15.1
2022-10-29T02:59:05.379Z,15
2022-10-29T03:00:09.111Z,18
2022-10-29T03:01:13.615Z,15.1
2022-10-29T03:02:18.247Z,17.4
2022-10-29T03:03:22.688Z,14.5
2022-10-29T03:04:27.256Z,16.1
2022-10-29T03:05:31.895Z,16.1
2022-10-29T03:06:36.466Z,15.5
2022-10-29T03:07:41.108Z,17.8
2022-10-29T03:08:45.546Z,15.5
2022-10-29T03:09:50.195Z,13.4
2022-10-29T03:10:54.311Z,15.9
2022-10-29T03:11:58.951Z,15.9
2022-10-29T03:13:03.734Z,14.7
2022-10-29T03:14:08.319Z,13.5
2022-10-29T03:15:12.663Z,16.8
2022-10-29T03:16:17.331Z,15.6
2022-10-29T03:17:21.784Z,15.1
2022-10-29T03:18:26.620Z,17.5
2022-10-29T03:19:31.156Z,14.8
2022-10-29T03:20:35.762Z,15
2022-10-29T03:21:40.180Z,17.5
2022-10-29T03:22:44.794Z,13.9
2022-10-29T03:23:49.316Z,15.3
2022-10-29T03:24:54.166Z,15.6
2022-10-29T03:25:58.499Z,16.5
2022-10-29T03:27:03.227Z,15.4
2022-10-29T03:28:07.718Z,18.4
2022-10-29T03:29:11.848Z,16
2022-10-29T03:30:16.395Z,17.2
2022-10-29T03:31:21.112Z,16.9
2022-10-29T03:32:25.779Z,14.9
2022-10-29T03:33:30.127Z,17.1
2022-10-29T03:34:34.723Z,16.7
2022-10-29T03:35:39.386Z,17.8
2022-10-29T03:36:43.939Z,16.2
2022-10-29T03:37:48.055Z,14.8
2022-10-29T03:38:52.722Z,14.8
2022-10-29T03:39:57.679Z,15.3
2022-10-29T03:41:01.918Z,15.8
2022-10-29T03:42:06.574Z,15
2022-10-29T03:43:11.210Z,16.6
2022-10-29T03:44:15.607Z,15.8
2022-10-29T03:45:20.579Z,15.7
2022-10-29T03:46:24.802Z,17.9
2022-10-29T03:47:29.397Z,15.9
2022-10-29T03:48:34.117Z,17.3
2022-10-29T03:49:38.639Z,14.2
2022-10-29T03:50:43.164Z,17
2022-10-29T03:51:55.391Z,15.5
2022-10-29T03:52:59.931Z,15.4
2022-10-29T03:54:03.998Z,17.3
2022-10-29T03:55:08.152Z,15.2
2022-10-29T03:56:12.775Z,16.3
2022-10-29T03:57:17.298Z,15.4
2022-10-29T03:58:21.851Z,15.2
2022-10-29T03:59:25.932Z,15.1
2022-10-29T04:00:29.984Z,16.5
2022-10-29T04:01:34.750Z,16.5
2022-10-29T04:02:39.793Z,16.8
2022-10-29T04:03:44.326Z,17.5
2022-10-29T04:04:48.957Z,14.8
2022-10-29T04:05:54.054Z,14.8
2022-10-29T04:06:58.722Z,15.4
2022-10-29T04:08:03.219Z,16.5
2022-10-29T04:09:07.911Z,16.4
2022-10-29T04:10:12.438Z,18
2022-10-29T04:11:16.942Z,16.1
2022-10-29T04:12:21.894Z,17.6
2022-10-29T04:13:26.211Z,17.7
2022-10-29T04:14:30.746Z,17.1
2022-10-29T04:15:35.038Z,15.3
2022-10-29T04:16:39.443Z,16.5
2022-10-29T04:17:44.067Z,14.9
2022-10-29T04:18:48.595Z,15.1
2022-10-29T04:19:52.659Z,14.4
2022-10-29T04:28:18.089Z,14.2
2022-10-29T04:28:44.192Z,16
2022-10-29T04:29:32.964Z,15.2
2022-10-29T04:30:37.520Z,15.7
2022-10-29T04:31:42.106Z,15.4
2022-10-29T04:32:46.800Z,15.9
2022-10-29T04:33:51.511Z,13.9
2022-10-29T04:34:55.935Z,14.6
2022-10-29T04:36:00.502Z,13.7
2022-10-29T04:37:05.083Z,13.8
2022-10-29T04:38:09.810Z,15.4
2022-10-29T04:39:15.415Z,13.1
2022-10-29T04:40:18.895Z,14
2022-10-29T04:41:23.418Z,13.6
2022-10-29T04:42:28.030Z,16.4
2022-10-29T04:43:37.608Z,12.7
2022-10-29T04:44:42.235Z,14
2022-10-29T04:45:46.873Z,14.4
2022-10-29T04:46:51.398Z,14.4
2022-10-29T04:47:56.296Z,14.2
2022-10-29T04:49:00.719Z,12.6
2022-10-29T04:50:05.287Z,13.5
2022-10-29T04:51:09.685Z,14.7
2022-10-29T04:52:19.320Z,13.8
2022-10-29T04:53:23.551Z,16
2022-10-29T04:54:28.018Z,13.3
2022-10-29T04:55:32.710Z,11.7
2022-10-29T04:56:37.079Z,14.6
2022-10-29T04:57:41.635Z,12.9
2022-10-29T04:58:50.930Z,12.4
2022-10-29T04:59:55.507Z,13.3
2022-10-29T05:01:00.395Z,15.2
2022-10-29T05:02:04.755Z,12.4
2022-10-29T05:03:09.346Z,14.1
2022-10-29T05:04:13.800Z,12.6
2022-10-29T05:05:18.342Z,12.5
2022-10-29T05:06:23.034Z,11.9
2022-10-29T05:07:27.874Z,12.3
2022-10-29T05:08:32.145Z,12.5
2022-10-29T05:09:36.759Z,14
2022-10-29T05:10:41.359Z,13.6
2022-10-29T05:11:46.062Z,13
2022-10-29T05:12:50.663Z,14.5
2022-10-29T05:13:57.806Z,13.6
2022-10-29T05:15:02.291Z,13.8
2022-10-29T05:16:06.763Z,14.1
2022-10-29T05:17:11.376Z,13.7
2022-10-29T05:18:15.439Z,15.1
2022-10-29T05:19:20.028Z,12.5
2022-10-29T05:20:24.762Z,15
2022-10-29T05:21:29.315Z,12.7
2022-10-29T05:22:33.825Z,14.6
2022-10-29T05:23:38.431Z,13.4
2022-10-29T05:24:43.130Z,11.3
2022-10-29T05:25:47.690Z,13.3
2022-10-29T05:26:52.162Z,13.1
2022-10-29T05:27:57.168Z,11.8
2022-10-29T05:29:04.406Z,13.6
2022-10-29T05:30:09.108Z,12.8
2022-10-29T05:31:13.797Z,12.2
2022-10-29T05:32:18.281Z,11.5
2022-10-29T05:33:22.668Z,12.4
2022-10-29T05:34:27.290Z,13.5
2022-10-29T05:35:31.532Z,10.7
2022-10-29T05:36:36.450Z,12.9
2022-10-29T05:37:40.675Z,12.9
2022-10-29T05:38:45.126Z,12.1
2022-10-29T05:39:49.527Z,12.9
2022-10-29T05:40:56.610Z,13.2
2022-10-29T05:42:01.324Z,12.5
2022-10-29T05:43:05.702Z,12.7
2022-10-29T05:44:10.186Z,13
2022-10-29T05:45:14.452Z,14
2022-10-29T05:46:19.061Z,12.9
2022-10-29T05:47:23.526Z,12.9
2022-10-29T05:48:27.946Z,12.2
2022-10-29T05:49:32.187Z,12.4
2022-10-29T05:50:36.839Z,12.6
2022-10-29T05:51:41.314Z,11.5
2022-10-29T05:52:45.865Z,13.5
2022-10-29T05:53:58.217Z,13
2022-10-29T05:55:02.941Z,13.1
2022-10-29T05:56:07.308Z,13.4
2022-10-29T05:57:11.916Z,13.6
2022-10-29T05:58:16.499Z,12
2022-10-29T05:59:21.320Z,12.2
2022-10-29T06:00:25.709Z,14.9
2022-10-29T06:01:30.206Z,12.6
2022-10-29T06:02:34.948Z,15.2
2022-10-29T06:03:39.494Z,13.4
2022-10-29T06:04:44.062Z,15.7
2022-10-29T06:05:48.809Z,15.8
2022-10-29T06:06:53.324Z,13.8
2022-10-29T06:07:57.904Z,14.7
2022-10-29T06:09:01.907Z,13.6
2022-10-29T06:10:06.470Z,15
2022-10-29T06:11:11.120Z,14
2022-10-29T06:12:15.834Z,13.5
2022-10-29T06:13:20.122Z,13.6
2022-10-29T06:14:24.274Z,17.2
2022-10-29T06:15:28.931Z,15.1
2022-10-29T06:16:33.486Z,13.9
2022-10-29T06:17:38.182Z,16.5
2022-10-29T06:18:42.656Z,13.9
2022-10-29T06:19:47.239Z,16.8
2022-10-29T06:20:51.405Z,15.1
2022-10-29T06:21:57.814Z,15.7
2022-10-29T06:23:00.799Z,14.6
2022-10-29T06:24:05.353Z,15.8
2022-10-29T06:25:09.766Z,14.5
2022-10-29T06:26:14.467Z,16.4
2022-10-29T06:27:19.002Z,15.1
2022-10-29T06:28:23.502Z,16.2
2022-10-29T06:29:28.258Z,16.1
2022-10-29T06:30:32.861Z,15.8
2022-10-29T06:31:37.349Z,15.2
2022-10-29T06:32:41.949Z,15.2
2022-10-29T06:33:46.979Z,14.7
2022-10-29T06:34:52.037Z,18.5
2022-10-29T06:35:56.898Z,18
2022-10-29T06:37:01.568Z,16.3
2022-10-29T06:38:07.876Z,15.5
2022-10-29T06:39:10.513Z,17.3
2022-10-29T06:40:15.058Z,17.1
2022-10-29T06:41:19.689Z,16.1
2022-10-29T06:42:24.454Z,17.1
2022-10-29T06:43:28.793Z,15.7
2022-10-29T06:44:34.615Z,20.4
2022-10-29T06:45:39.149Z,18.4
2022-10-29T06:46:43.241Z,16.4
2022-10-29T06:47:49.362Z,16.8
2022-10-29T06:48:53.957Z,17.5
2022-10-29T06:49:58.654Z,18.9
2022-10-29T06:51:03.053Z,16.7
2022-10-29T06:52:07.142Z,19.6
2022-10-29T06:53:11.334Z,18.3
2022-10-29T06:54:15.929Z,20
2022-10-29T06:55:23.658Z,16.9
2022-10-29T06:56:29.549Z,17.9
2022-10-29T06:57:33.839Z,19.4
2022-10-29T06:58:38.321Z,17.1
2022-10-29T06:59:42.471Z,20.1
2022-10-29T07:00:47.339Z,16.9
2022-10-29T07:01:51.789Z,17.7
2022-10-29T07:02:56.693Z,20.8
2022-10-29T07:04:01.223Z,19
2022-10-29T07:05:06.026Z,17.4
2022-10-29T07:06:10.406Z,18.5
2022-10-29T07:07:14.662Z,17.6
2022-10-29T07:08:20.555Z,20.3
2022-10-29T07:09:27.413Z,18.6
2022-10-29T07:10:33.695Z,21.1
2022-10-29T07:11:37.983Z,19.4
2022-10-29T07:12:42.189Z,17.9
2022-10-29T07:13:47.025Z,19.3
2022-10-29T07:14:51.381Z,17.5
2022-10-29T07:15:55.862Z,17.8
2022-10-29T07:17:00.685Z,17.5
2022-10-29T07:18:05.030Z,18.2
2022-10-29T07:19:09.905Z,21.1
2022-10-29T07:20:14.346Z,18.1
2022-10-29T07:21:19.049Z,20
2022-10-29T07:22:23.465Z,20.3
2022-10-29T07:23:27.917Z,19.8
2022-10-29T07:24:32.241Z,19.6
2022-10-29T07:25:36.686Z,17.8
2022-10-29T07:26:41.173Z,17.8
2022-10-29T07:27:45.994Z,21
2022-10-29T07:28:50.462Z,17.5
2022-10-29T07:29:54.993Z,19.9
2022-10-29T07:30:59.597Z,18.9
2022-10-29T07:32:04.342Z,19.8
2022-10-29T07:33:08.597Z,20.8
2022-10-29T07:34:12.854Z,17.5
2022-10-29T07:35:17.457Z,18.5
2022-10-29T07:36:22.115Z,18
2022-10-29T07:37:26.629Z,18.6
2022-10-29T07:38:31.224Z,17.8
2022-10-29T07:39:35.968Z,16.8
2022-10-29T07:40:40.345Z,17.1
2022-10-29T07:41:47.475Z,19.8
2022-10-29T07:42:52.131Z,17.1
2022-10-29T07:43:56.997Z,18.4
2022-10-29T07:45:01.180Z,14.5
2022-10-29T07:46:05.818Z,16.7
2022-10-29T07:47:10.327Z,15.6
2022-10-29T07:50:35.229Z,15
2022-10-29T07:51:39.347Z,17.1
2022-10-29T07:52:43.526Z,16.1
2022-10-29T08:04:15.437Z,16.1
2022-10-29T08:05:19.817Z,16.1
2022-10-29T08:06:24.441Z,13.6
2022-10-29T08:07:28.999Z,14.4
2022-10-29T08:14:07.524Z,13.8
2022-10-29T08:15:11.806Z,14.6
2022-10-29T08:16:16.389Z,12.9
2022-10-29T08:17:20.489Z,12.3
2022-10-29T08:18:25.150Z,13.8
2022-10-29T08:21:02.398Z,12.9
2022-10-29T08:22:06.862Z,13.8
2022-10-29T08:23:11.578Z,12.6
2022-10-29T08:24:16.078Z,14.1
2022-10-29T08:28:31.826Z,13.6
2022-10-29T08:29:33.933Z,13.7
2022-10-29T08:30:53.545Z,13.3
2022-10-29T08:31:57.737Z,12
2022-10-29T08:33:04.683Z,14
2022-10-29T08:34:11.170Z,11.9
2022-10-29T08:35:13.368Z,12.5
2022-10-29T08:36:22.897Z,15
2022-10-29T08:37:27.365Z,15.8
2022-10-29T08:38:31.517Z,14.2
2022-10-29T08:40:38.184Z,14.2
2022-10-29T08:42:09.480Z,14.5
2022-10-29T08:43:18.997Z,14.2
2022-10-29T08:44:31.732Z,14.3
2022-10-29T08:45:41.409Z,14.7
2022-10-29T08:46:45.914Z,15.7
2022-10-29T08:51:33.249Z,15.7
2022-10-29T08:52:48.252Z,15.1
2022-10-29T08:53:54.078Z,13.3
2022-10-29T08:56:14.029Z,13.5
2022-10-29T08:57:23.685Z,14.1
2022-10-29T08:58:59.397Z,14.1
2022-10-29T09:01:25.186Z,12
2022-10-29T09:02:29.441Z,13.3
2022-10-29T09:03:34.149Z,12.5
2022-10-29T09:09:05.783Z,12.5
2022-10-29T09:10:16.013Z,14.9
2022-10-29T09:11:28.648Z,14.5
2022-10-29T09:12:41.253Z,15.2
2022-10-29T09:13:56.061Z,12.7
2022-10-29T09:38:04.075Z,13.7
2022-10-29T09:39:33.056Z,12.9
2022-10-29T09:40:33.201Z,12.7
2022-10-29T09:41:37.518Z,13.2
2022-10-29T09:42:43.671Z,13.1
2022-10-29T09:43:47.829Z,12.4
2022-10-29T09:45:59.576Z,12.4
2022-10-29T10:01:02.373Z,12.4
2022-10-29T10:03:09.082Z,12.4
2022-10-29T10:14:45.301Z,12.4
2022-10-29T10:16:51.950Z,12.4
2022-10-29T10:49:37.074Z,12.4
2022-10-29T10:51:43.750Z,12.4
2022-10-29T10:53:11.558Z,12.4
2022-10-29T10:57:51.186Z,14.2
2022-10-29T10:59:00.628Z,11.6
2022-10-29T11:00:08.348Z,18.6
2022-10-29T11:01:18.721Z,17.2
2022-10-29T11:07:56.969Z,15.8
2022-10-29T11:09:14.621Z,13
2022-10-29T11:10:24.187Z,12.1
2022-10-29T11:11:31.678Z,13.7
2022-10-29T11:12:42.162Z,14.6
2022-10-29T11:13:51.854Z,12.9
2022-10-29T11:15:53.124Z,12.9
2022-10-29T11:24:05.220Z,15.6
2022-10-29T11:25:48.559Z,15.6
2022-10-29T11:26:55.632Z,14.7
2022-10-29T11:28:05.191Z,12.4
2022-10-29T11:30:41.327Z,16
2022-10-29T11:31:51.109Z,13.5
2022-10-29T11:33:05.759Z,16.1
2022-10-29T11:34:15.608Z,17.7
2022-10-29T11:44:51.713Z,44.2
2022-10-29T11:45:57.823Z,14.5
2022-10-29T11:47:12.919Z,21.9
2022-10-29T11:48:27.938Z,26
2022-10-29T11:49:40.991Z,27
2022-10-29T11:50:56.815Z,23.2
2022-10-29T11:52:11.923Z,13.3
2022-10-29T11:53:26.723Z,21.4
2022-10-29T11:54:34.132Z,16.5
2022-10-29T11:55:49.267Z,14.9
2022-10-29T11:57:04.126Z,15.4
2022-10-29T11:58:13.775Z,11.9
2022-10-29T11:59:18.291Z,14.2
2022-10-29T12:00:23.491Z,14.2
2022-10-29T12:01:27.946Z,14
2022-10-29T12:02:43.382Z,15.9
2022-10-29T12:03:58.462Z,15
2022-10-29T12:05:06.707Z,18.2
2022-10-29T12:06:16.651Z,13.8
2022-10-29T12:07:26.286Z,15.6
2022-10-29T12:08:36.619Z,16.3
2022-10-29T12:09:46.639Z,12.9
2022-10-29T12:11:02.287Z,12.3
2022-10-29T12:12:13.230Z,13.9
2022-10-29T12:13:27.459Z,13.4
2022-10-29T12:14:37.507Z,12.6
2022-10-29T12:15:44.947Z,14.7
2022-10-29T12:17:00.362Z,15.4
2022-10-29T12:18:10.306Z,15.4
2022-10-29T12:19:22.611Z,13.1
2022-10-29T12:20:33.292Z,11
2022-10-29T12:21:38.553Z,13.3
2022-10-29T12:22:47.079Z,14.9
2022-10-29T12:23:57.575Z,17.1
2022-10-29T12:25:09.667Z,14
2022-10-29T12:26:24.354Z,19
2022-10-29T12:27:37.371Z,22.6
2022-10-29T12:28:47.291Z,16
2022-10-29T12:29:58.295Z,13.5
2022-10-29T12:31:06.340Z,12.1
2022-10-29T12:32:14.694Z,12.9
2022-10-29T12:33:24.287Z,14.3
2022-10-29T12:34:28.747Z,14
2022-10-29T12:35:38.884Z,12.2
2022-10-29T12:36:56.586Z,10.1
2022-10-29T12:38:09.662Z,11.3
2022-10-29T12:39:14.107Z,10.8
2022-10-29T12:40:24.018Z,11.5
2022-10-29T12:41:32.386Z,11.4
2022-10-29T12:42:37.619Z,14.2
2022-10-29T12:43:42.537Z,11.2
2022-10-29T12:44:49.167Z,11.3
2022-10-29T12:46:19.397Z,12.5
2022-10-29T12:47:11.827Z,11.2
2022-10-29T12:48:25.170Z,12.6
2022-10-29T12:49:32.894Z,11.8
2022-10-29T12:50:47.900Z,10.8
2022-10-29T12:52:02.836Z,13.9
2022-10-29T12:53:10.791Z,13
2022-10-29T12:54:17.750Z,13.2
2022-10-29T12:55:27.295Z,11.1
2022-10-29T12:56:31.582Z,13.4
2022-10-29T12:57:36.419Z,11.9
2022-10-29T12:58:41.454Z,13.3
2022-10-29T12:59:51.286Z,11.8
2022-10-29T13:00:56.024Z,11
2022-10-29T13:02:16.217Z,12.8
2022-10-29T13:03:15.899Z,12.3
2022-10-29T13:04:31.355Z,13.2
2022-10-29T13:05:37.748Z,11.7
2022-10-29T13:06:42.906Z,12.4
2022-10-29T13:07:47.430Z,10.7
2022-10-29T13:08:57.106Z,11.1
2022-10-29T13:10:01.282Z,10.5
2022-10-29T13:11:16.351Z,11.2
2022-10-29T13:12:20.879Z,11.8
2022-10-29T13:13:31.054Z,12.7
2022-10-29T13:14:35.335Z,13.6
2022-10-29T13:15:42.682Z,12.3
2022-10-29T13:16:47.538Z,12.3
2022-10-29T13:17:52.211Z,11.8
2022-10-29T13:18:56.652Z,11.2
2022-10-29T13:20:03.905Z,11.9
2022-10-29T13:21:08.952Z,12.6
2022-10-29T13:22:13.151Z,14.5
2022-10-29T13:23:18.071Z,13.2
2022-10-29T13:24:22.749Z,13.5
2022-10-29T13:25:27.779Z,14.5
2022-10-29T13:26:36.675Z,15.5
2022-10-29T13:27:51.815Z,12.4
2022-10-29T13:28:56.766Z,16.7
2022-10-29T13:30:01.711Z,16.1
2022-10-29T13:31:11.447Z,12.8
2022-10-29T13:32:15.759Z,12.8
2022-10-29T13:33:28.430Z,12.9
2022-10-29T13:34:32.667Z,16.8
2022-10-29T13:35:47.738Z,14.2
2022-10-29T13:36:57.255Z,13.8
2022-10-29T13:38:11.833Z,16.3
2022-10-29T13:39:16.423Z,14.9
2022-10-29T13:40:20.657Z,15
2022-10-29T13:41:34.095Z,14.8
2022-10-29T13:42:41.523Z,12.9
2022-10-29T13:43:46.230Z,12.2
2022-10-29T13:44:53.671Z,11.7
2022-10-29T13:45:57.847Z,12.3
2022-10-29T13:47:07.570Z,11.5
2022-10-29T13:48:14.996Z,13
2022-10-29T13:49:24.546Z,12
2022-10-29T13:50:34.142Z,11.6
2022-10-29T13:51:39.089Z,12.1
2022-10-29T13:52:44.406Z,13.3
2022-10-29T13:53:49.230Z,13
2022-10-29T13:54:53.895Z,14.6
2022-10-29T13:57:12.893Z,12.7
2022-10-29T13:59:24.356Z,12.7
2022-10-29T14:11:29.229Z,12.7
2022-10-29T14:12:37.178Z,15
2022-10-29T14:13:42.083Z,17.1
2022-10-29T14:14:48.994Z,16.1
2022-10-29T14:15:58.843Z,18.7
2022-10-29T14:42:22.510Z,13.7
2022-10-29T14:44:34.280Z,13.7
2022-10-29T15:13:09.353Z,20.1
2022-10-29T15:14:24.926Z,18.3
2022-10-29T15:15:36.321Z,17
2022-10-29T15:16:42.381Z,18.1
2022-10-29T15:17:45.463Z,17.7
2022-10-29T16:45:09.742Z,19.3
2022-10-29T16:46:16.957Z,19.8
2022-10-29T16:47:21.526Z,17.9
2022-10-29T16:48:26.021Z,21
2022-10-29T16:49:30.422Z,21.3
2022-10-29T16:57:34.381Z,21.3
2022-10-29T16:59:40.871Z,21.3
2022-10-29T17:04:00.237Z,21.3
2022-10-29T17:06:06.424Z,21.3
2022-10-29T18:07:41.763Z,18.9
2022-10-29T18:08:46.389Z,20.2
2022-10-29T18:09:50.889Z,19.1
2022-10-29T18:10:55.782Z,20.1
2022-10-29T18:12:08.547Z,21.1
2022-10-29T18:16:44.690Z,21.1
2022-10-29T18:17:49.092Z,23.5
2022-10-29T18:19:01.768Z,21.9
2022-10-29T18:19:59.233Z,22.5
2022-10-29T18:21:03.629Z,22
2022-10-29T18:22:11.694Z,22.1
2022-10-29T18:23:16.210Z,26.2
2022-10-29T18:24:20.691Z,26.1
2022-10-29T18:25:24.806Z,25.3
2022-10-29T18:26:28.927Z,22
2022-10-29T18:27:33.699Z,25.2
2022-10-29T18:28:38.369Z,25.6
2022-10-29T18:29:42.798Z,21.2
2022-10-29T18:30:47.257Z,27.1
2022-10-29T18:31:51.434Z,20.6
2022-10-29T18:32:57.989Z,20.9
2022-10-29T18:34:02.231Z,21.2
2022-10-29T18:35:06.998Z,19.1
2022-10-29T18:36:11.358Z,18.4
2022-10-29T18:37:15.949Z,17.4
2022-10-29T18:38:23.785Z,22
2022-10-29T18:39:26.258Z,19.9
2022-10-29T18:40:30.867Z,22.2
2022-10-29T18:41:38.489Z,23.1
2022-10-29T18:42:43.062Z,26.4
2022-10-29T18:43:47.617Z,23
2022-10-29T18:44:52.284Z,25.7
2022-10-29T18:45:56.694Z,24.5
2022-10-29T18:47:06.362Z,23.2
2022-10-29T18:48:11.048Z,24.6
2022-10-29T18:49:17.700Z,21.1
2022-10-29T18:50:21.969Z,26.1
2022-10-29T18:51:26.949Z,19.5
2022-10-29T18:52:31.691Z,21.2
2022-10-29T18:53:36.262Z,21.2
2022-10-29T18:55:52.434Z,22.4
2022-10-29T18:56:56.985Z,20.7
2022-10-29T18:58:01.870Z,24.2
2022-10-29T18:59:06.630Z,24.7
2022-10-29T19:00:17.705Z,22.2
2022-10-29T19:01:22.331Z,23
2022-10-29T19:02:26.934Z,21.2
2022-10-29T19:03:31.144Z,20.3
2022-10-29T19:04:35.812Z,20.4
2022-10-29T19:05:42.767Z,19.1
2022-10-29T19:06:47.122Z,24.4
2022-10-29T19:07:51.590Z,25.3
2022-10-29T19:08:56.227Z,23.7
2022-10-29T19:10:00.817Z,25.9
2022-10-29T19:11:12.757Z,21.2
2022-10-29T19:12:17.694Z,20.4
2022-10-29T19:13:22.846Z,22.8
2022-10-29T19:14:27.405Z,23.5
2022-10-29T19:15:32.061Z,22.2
2022-10-29T19:18:02.313Z,20.5
2022-10-29T19:19:06.748Z,21.3
2022-10-29T19:20:10.942Z,19.3
2022-10-29T19:21:15.382Z,21.6
2022-10-29T19:22:21.741Z,22.1
2022-10-29T19:23:26.157Z,21.7
2022-10-29T19:24:30.842Z,23.3
2022-10-29T19:25:38.630Z,21.2
2022-10-29T19:26:40.894Z,22.7
2022-10-29T19:27:47.703Z,24.7
2022-10-29T19:28:52.098Z,25.6
2022-10-29T19:29:56.146Z,21.4
2022-10-29T19:31:00.257Z,27
2022-10-29T19:32:05.113Z,26
2022-10-29T19:33:14.085Z,25.5
2022-10-29T19:34:18.713Z,22.9
2022-10-29T19:35:23.032Z,20.5
2022-10-29T19:36:27.455Z,23.2
2022-10-29T19:37:32.413Z,20.5
2022-10-29T19:38:40.710Z,21.7
2022-10-29T19:39:45.401Z,23.5
2022-10-29T19:40:49.833Z,22.9
2022-10-29T19:41:54.864Z,19.8
2022-10-29T19:42:59.531Z,22.2
2022-10-29T19:44:03.717Z,23.6
2022-10-29T19:45:08.348Z,22.4
2022-10-29T19:46:13.062Z,22
2022-10-29T19:47:17.769Z,20.4
2022-10-29T19:48:22.394Z,21.8
2022-10-29T19:49:26.829Z,23.9
2022-10-29T19:50:31.130Z,16.9
2022-10-29T19:51:35.488Z,24.1
2022-10-29T19:52:39.958Z,18.6
2022-10-29T19:53:44.534Z,20.7
2022-10-29T19:54:53.741Z,18.9
2022-10-29T19:55:58.448Z,25.2
2022-10-29T19:57:02.816Z,20.6
2022-10-29T19:58:07.269Z,23.2
2022-10-29T19:59:11.641Z,23.5
2022-10-29T20:00:17.547Z,19.8
2022-10-29T20:01:20.876Z,22.2
2022-10-29T20:02:25.064Z,19.9
2022-10-29T20:03:29.359Z,22.1
2022-10-29T20:04:33.544Z,22.5
2022-10-29T20:05:39.711Z,23.9
2022-10-29T20:06:44.517Z,22.3
2022-10-29T20:07:49.230Z,21.3
2022-10-29T20:08:54.009Z,21.4
2022-10-29T20:09:58.482Z,23.2
2022-10-29T20:11:04.714Z,26.5
2022-10-29T20:12:09.339Z,22.4
2022-10-29T20:13:13.969Z,18.5
2022-10-29T20:14:18.472Z,20.2
2022-10-29T20:15:23.636Z,16.9
2022-10-29T20:16:30.729Z,18.5
2022-10-29T20:17:35.997Z,19.3
2022-10-29T20:18:40.464Z,20.7
2022-10-29T20:19:45.265Z,23.1
2022-10-29T20:20:49.741Z,21
2022-10-29T20:21:55.784Z,23.1
2022-10-29T20:23:00.741Z,20
2022-10-29T20:24:04.865Z,20.3
2022-10-29T20:25:09.308Z,19.9
2022-10-29T20:26:14.012Z,19.6
2022-10-29T20:27:20.709Z,21.3
2022-10-29T20:28:25.037Z,20.1
2022-10-29T20:29:29.485Z,19.3
2022-10-29T20:30:36.816Z,20.9
2022-10-29T20:31:41.681Z,20.1
2022-10-29T20:32:46.717Z,19.1
2022-10-29T20:33:51.037Z,19.8
2022-10-29T20:34:56.456Z,21.7
2022-10-29T20:36:01.137Z,19.4
2022-10-29T20:37:05.999Z,22.4
2022-10-29T20:38:13.741Z,18.2
2022-10-29T20:39:18.553Z,18.3
2022-10-29T20:40:23.092Z,19.7
2022-10-29T20:41:28.454Z,20.2
2022-10-29T20:42:32.940Z,18.5
2022-10-29T20:43:37.728Z,19.7
2022-10-29T20:44:42.213Z,20.6
2022-10-29T20:45:46.628Z,19.9
2022-10-29T20:46:51.512Z,20.7
2022-10-29T20:47:56.685Z,16.3
2022-10-29T20:50:21.818Z,17.3
2022-10-29T20:51:26.384Z,22.3
2022-10-29T20:52:31.045Z,21.2
2022-10-29T20:53:35.901Z,18
2022-10-29T20:54:43.736Z,21.6
2022-10-29T20:55:48.037Z,20.7
2022-10-29T20:56:52.565Z,20.8
2022-10-29T20:57:57.226Z,22
2022-10-29T20:59:11.185Z,17.3
2022-10-29T21:00:15.357Z,19.3
2022-10-29T21:01:20.276Z,22.2
2022-10-29T21:02:24.851Z,20.4
2022-10-29T21:03:29.817Z,19.1
2022-10-29T21:04:44.722Z,18.3
2022-10-29T21:05:49.138Z,17.4
2022-10-29T21:06:53.671Z,18.3
2022-10-29T21:07:58.710Z,17.6
2022-10-29T21:09:02.894Z,20.2
2022-10-29T21:10:08.749Z,16.5
2022-10-29T21:11:13.594Z,19.4
2022-10-29T21:12:18.308Z,19.8
2022-10-29T21:13:22.905Z,23.4